Time;durP1;ratioP1;P1;durP2;ratioP2;P2;SDS_P1;SDS_P2;PMS_P1;PMS_P2;Temp;Humidity;BMP_temperature;BMP_pressure;BME280_temperature;BME280_humidity;BME280_pressure;Samples;Min_cycle;Max_cycle;Signal;HPM_P1;HPM_P2
2022/09/15 08:01:53;;;;;;;18.77;14.15;;;;;;;15.44;100.00;100676.81;5278876;28;20402;-74
2022/09/15 08:04:25;;;;;;;11.65;10.43;;;;;;;15.48;98.89;100666.66;5275447;28;20398;-75
2022/09/15 08:06:56;;;;;;;12.00;9.50;;;;;;;15.58;98.86;100674.72;5256449;28;20109;-73
2022/09/15 08:09:27;;;;;;;9.75;8.20;;;;;;;15.83;100.00;100669.50;5260291;28;20041;-73
2022/09/15 08:11:59;;;;;;;9.50;8.55;;;;;;;15.85;100.00;100670.00;5250213;28;20371;-72
2022/09/15 08:14:31;;;;;;;10.82;9.68;;;;;;;15.86;100.00;100677.22;5264523;28;20116;-75
2022/09/15 08:17:03;;;;;;;10.48;8.50;;;;;;;15.99;99.73;100679.03;5259151;28;20427;-73
2022/09/15 08:19:35;;;;;;;17.98;10.65;;;;;;;15.82;97.03;100676.22;5261841;28;20035;-71
2022/09/15 08:22:09;;;;;;;11.43;9.93;;;;;;;15.85;96.89;100684.00;5242239;28;20030;-73
2022/09/15 08:24:40;;;;;;;24.70;21.92;;;;;;;15.88;97.90;100688.91;5256712;28;20032;-72
2022/09/15 08:27:12;;;;;;;14.43;12.57;;;;;;;15.90;97.30;100695.00;5263356;28;20488;-72
2022/09/15 08:29:43;;;;;;;13.13;9.98;;;;;;;16.25;98.67;100687.38;5258716;28;20025;-72
2022/09/15 08:32:14;;;;;;;16.20;10.85;;;;;;;16.34;97.80;100701.38;5257578;28;20219;-72
2022/09/15 08:34:46;;;;;;;10.75;9.65;;;;;;;16.08;95.01;100702.22;5258795;28;20025;-73
2022/09/15 08:37:17;;;;;;;11.15;9.32;;;;;;;16.09;94.43;100706.66;5258319;28;20344;-72
2022/09/15 08:39:48;;;;;;;10.65;8.27;;;;;;;16.21;96.13;100703.22;5255580;28;20065;-73
2022/09/15 08:42:22;;;;;;;13.05;9.65;;;;;;;16.04;94.68;100701.22;5258616;28;20483;-72
2022/09/15 08:45:04;;;;;;;11.48;10.25;;;;;;;16.09;94.97;100706.66;5258684;28;20021;-72
2022/09/15 08:47:44;;;;;;;12.45;10.10;;;;;;;16.08;94.42;100710.63;5257588;28;20033;-73
2022/09/15 08:50:26;;;;;;;10.48;9.43;;;;;;;16.11;94.37;100703.53;5259045;28;20036;-73
2022/09/15 08:53:02;;;;;;;10.57;9.40;;;;;;;16.14;94.53;100713.25;5258964;28;20032;-73
2022/09/15 08:55:47;;;;;;;12.52;9.27;;;;;;;16.17;94.60;100715.38;5256644;28;20376;-72
2022/09/15 08:58:33;;;;;;;10.30;9.18;;;;;;;16.24;95.35;100712.91;5262260;28;20094;-72
2022/09/15 09:01:21;;;;;;;13.48;8.13;;;;;;;16.23;94.56;100712.09;5272255;28;20056;-73
2022/09/15 09:04:19;;;;;;;9.35;8.35;;;;;;;16.24;93.40;100715.72;5263186;28;20021;-72
2022/09/15 09:07:21;;;;;;;12.05;7.47;;;;;;;16.46;93.64;100723.91;5263526;28;20040;-73
2022/09/15 09:10:07;;;;;;;10.07;6.78;;;;;;;16.56;94.50;100725.50;5260423;28;20314;-73
2022/09/15 09:12:39;;;;;;;;;;;;;;;16.57;93.85;100737.56;5241115;28;20041;-73
2022/09/15 09:15:39;;;;;;;9.23;7.47;;;;;;;16.62;94.61;100741.00;5252770;28;20077;-74
2022/09/15 09:18:30;;;;;;;10.20;8.27;;;;;;;16.57;92.65;100740.34;5248787;28;20498;-74
2022/09/15 09:21:17;;;;;;;11.60;6.78;;;;;;;16.67;92.53;100742.81;5245739;28;20045;-74
2022/09/15 09:24:00;;;;;;;10.95;7.63;;;;;;;16.53;91.41;100743.78;5247064;28;20068;-74
2022/09/15 09:26:35;;;;;;;8.85;7.70;;;;;;;16.55;91.20;100742.66;5254123;28;20021;-72
2022/09/15 09:29:17;;;;;;;10.02;7.10;;;;;;;16.59;90.99;100741.66;5246357;28;20488;-72
2022/09/15 09:31:55;;;;;;;10.60;6.97;;;;;;;16.64;90.03;100735.03;5249029;28;20096;-74
2022/09/15 09:34:34;;;;;;;9.07;5.90;;;;;;;16.61;90.16;100733.72;5255478;28;20048;-73
2022/09/15 09:37:12;;;;;;;9.95;5.93;;;;;;;16.65;89.81;100736.69;5252967;28;20029;-72
2022/09/15 09:39:45;;;;;;;6.80;4.88;;;;;;;16.81;88.65;100737.81;5255676;28;20030;-72
2022/09/15 09:42:17;;;;;;;7.72;5.32;;;;;;;16.71;86.65;100735.34;5257480;28;20025;-73
2022/09/15 09:44:49;;;;;;;9.75;6.50;;;;;;;16.72;88.36;100739.81;5253407;28;20029;-74
2022/09/15 09:47:28;;;;;;;8.45;6.03;;;;;;;16.69;87.81;100732.91;5254819;28;20021;-73
2022/09/15 09:49:59;;;;;;;9.38;6.00;;;;;;;16.91;88.73;100731.03;5255612;28;20059;-74
2022/09/15 09:52:32;;;;;;;9.95;6.22;;;;;;;16.80;88.58;100739.00;5259016;28;20112;-73
2022/09/15 09:55:22;;;;;;;10.82;7.63;;;;;;;16.79;89.20;100739.31;5256386;28;20028;-72
2022/09/15 09:58:11;;;;;;;6.53;4.85;;;;;;;16.89;89.07;100734.16;5251641;28;20021;-71
2022/09/15 10:00:42;;;;;;;7.85;6.22;;;;;;;16.77;88.24;100736.84;5253817;28;20381;-72
2022/09/15 10:03:23;;;;;;;8.13;5.40;;;;;;;16.81;88.20;100731.41;5256371;28;20022;-72
2022/09/15 10:06:00;;;;;;;7.20;5.88;;;;;;;16.93;88.25;100732.34;5254340;28;20024;-71
2022/09/15 10:08:32;;;;;;;10.75;5.90;;;;;;;16.87;87.09;100735.66;5272590;28;20029;-72
2022/09/15 10:11:06;;;;;;;7.32;5.10;;;;;;;16.82;87.31;100742.28;5250638;28;20036;-74
2022/09/15 10:13:51;;;;;;;9.73;6.28;;;;;;;16.76;86.62;100743.56;5253251;28;20033;-73
2022/09/15 10:16:26;;;;;;;8.90;7.07;;;;;;;16.73;86.13;100741.44;5245578;28;20380;-74
2022/09/15 10:19:00;;;;;;;12.82;9.07;;;;;;;16.65;87.56;100745.91;5247705;28;20387;-74
2022/09/15 10:21:32;;;;;;;9.73;6.30;;;;;;;16.67;87.93;100749.22;5250691;28;20029;-74
2022/09/15 10:24:32;;;;;;;7.72;4.97;;;;;;;16.66;85.97;100741.94;5241768;28;20032;-74
2022/09/15 10:27:19;;;;;;;6.20;4.90;;;;;;;16.36;85.68;100741.06;5247184;28;20021;-73
2022/09/15 10:29:51;;;;;;;11.70;8.95;;;;;;;16.45;87.09;100744.63;5245183;28;20029;-74
2022/09/15 10:32:27;;;;;;;7.90;5.13;;;;;;;16.46;87.48;100743.50;5243506;28;20033;-73
2022/09/15 10:35:19;;;;;;;5.78;4.10;;;;;;;16.87;87.23;100741.25;5243074;28;20025;-73
2022/09/15 10:38:07;;;;;;;5.85;4.07;;;;;;;16.78;87.20;100738.50;5239142;28;20092;-72
2022/09/15 10:40:54;;;;;;;6.65;3.70;;;;;;;16.90;86.50;100735.84;5243185;28;20396;-73
2022/09/15 10:43:51;;;;;;;8.07;3.05;;;;;;;16.91;86.66;100737.47;5242146;28;20026;-74
2022/09/15 10:46:53;;;;;;;9.00;3.47;;;;;;;16.81;83.95;100754.63;5241471;28;20103;-72
2022/09/15 10:49:54;;;;;;;4.03;2.42;;;;;;;16.90;84.04;100747.03;5221924;28;20092;-72
2022/09/15 10:52:36;;;;;;;9.32;5.20;;;;;;;16.82;85.05;100749.84;5221845;28;20032;-74
2022/09/15 10:55:25;;;;;;;5.40;3.05;;;;;;;16.85;85.75;100750.03;5235046;28;20083;-75
2022/09/15 10:58:33;;;;;;;9.55;8.23;;;;;;;16.78;84.75;100749.69;5247381;28;20502;-76
2022/09/15 11:01:28;;;;;;;7.13;3.25;;;;;;;16.64;85.29;100760.25;5237990;28;20368;-75
2022/09/15 11:04:18;;;;;;;4.68;2.28;;;;;;;16.59;85.04;100766.88;5241208;28;20069;-71
2022/09/15 11:07:09;;;;;;;5.57;2.10;;;;;;;16.52;84.72;100763.75;5239592;28;20083;-72
2022/09/15 11:10:21;;;;;;;3.92;1.85;;;;;;;16.78;83.67;100755.31;5233294;28;20029;-72
2022/09/15 11:13:15;;;;;;;6.10;1.88;;;;;;;16.79;83.77;100759.75;5231791;28;20029;-71
2022/09/15 11:15:53;;;;;;;4.93;2.08;;;;;;;16.91;83.88;100762.69;5229628;28;20056;-73
2022/09/15 11:18:51;;;;;;;3.22;1.90;;;;;;;16.95;83.84;100752.44;5250409;28;20029;-72
2022/09/15 11:21:26;;;;;;;5.07;2.17;;;;;;;16.93;80.87;100756.75;5252925;28;20052;-77
2022/09/15 11:24:33;;;;;;;3.05;1.25;;;;;;;16.85;78.33;100755.63;5245325;28;20120;-75
2022/09/15 11:27:24;;;;;;;11.07;9.10;;;;;;;16.92;77.94;100758.72;5250363;28;20078;-74
2022/09/15 11:30:04;;;;;;;5.15;2.80;;;;;;;16.92;78.24;100758.72;5228974;28;20038;-74
2022/09/15 11:32:55;;;;;;;5.07;1.98;;;;;;;17.12;79.44;100759.13;5233977;28;20080;-74
2022/09/15 11:35:48;;;;;;;3.97;1.85;;;;;;;17.16;76.76;100762.91;5240388;28;20032;-75
2022/09/15 11:39:02;;;;;;;4.97;2.40;;;;;;;17.33;74.76;100765.66;5241128;28;20068;-75
2022/09/15 11:41:37;;;;;;;3.47;1.67;;;;;;;17.19;73.51;100767.84;5246858;28;20519;-75
2022/09/15 11:44:21;;;;;;;;;;;;;;;17.39;73.82;100761.47;5240206;28;20026;-74
2022/09/15 11:47:29;;;;;;;4.55;1.58;;;;;;;17.23;72.03;100760.44;5229873;28;19921;-74
2022/09/15 11:50:10;;;;;;;6.97;1.40;;;;;;;17.20;70.85;100761.06;5240189;28;20114;-73
2022/09/15 11:52:49;;;;;;;7.75;4.85;;;;;;;17.36;73.64;100769.75;5246415;28;20040;-74
2022/09/15 11:55:36;;;;;;;7.13;3.22;;;;;;;17.28;71.72;100767.78;5248404;28;20030;-74
2022/09/15 11:58:27;;;;;;;4.82;1.80;;;;;;;17.31;69.82;100769.94;5240484;28;20025;-75
2022/09/15 12:01:01;;;;;;;3.88;1.50;;;;;;;17.31;69.46;100767.97;5242193;28;20122;-74
2022/09/15 12:03:40;;;;;;;4.38;1.60;;;;;;;17.36;68.19;100758.53;5238610;28;20049;-73
2022/09/15 12:06:17;;;;;;;3.10;1.45;;;;;;;17.29;66.11;100753.47;5246274;28;20036;-75
2022/09/15 12:09:03;;;;;;;4.68;1.40;;;;;;;17.43;70.06;100752.38;5253710;28;20035;-75
2022/09/15 12:11:37;;;;;;;;;;;;;;;17.52;67.77;100756.78;5247191;28;20108;-77
2022/09/15 12:14:15;;;;;;;3.78;1.40;;;;;;;17.55;70.11;100744.09;5252766;28;20015;-75
2022/09/15 12:16:50;;;;;;;3.10;1.20;;;;;;;17.56;68.63;100742.91;5240485;28;20120;-75
2022/09/15 12:19:24;;;;;;;;;;;;;;;17.74;69.70;100746.41;5240436;28;20029;-75
2022/09/15 12:22:05;;;;;;;2.10;1.15;;;;;;;17.65;68.32;100742.88;5252277;28;19916;-74
2022/09/15 12:24:50;;;;;;;7.40;2.00;;;;;;;17.63;67.84;100734.78;5261008;28;20148;-74
2022/09/15 12:27:21;;;;;;;7.25;1.85;;;;;;;17.73;68.21;100745.59;5259820;28;20028;-74
2022/09/15 12:29:55;;;;;;;4.25;1.30;;;;;;;17.86;66.26;100740.91;5252464;28;20036;-74
2022/09/15 12:32:32;;;;;;;4.47;2.10;;;;;;;18.03;68.65;100737.16;5240656;28;20089;-74
2022/09/15 12:35:15;;;;;;;3.78;1.60;;;;;;;18.13;67.65;100736.75;5240727;28;20036;-75
2022/09/15 12:37:48;;;;;;;10.57;8.00;;;;;;;18.13;67.12;100736.75;5239308;28;20075;-73
2022/09/15 12:40:33;;;;;;;4.85;2.00;;;;;;;18.27;68.16;100733.66;5239845;28;20123;-75
2022/09/15 12:43:14;;;;;;;;;;;;;;;18.36;66.96;100727.97;5245636;28;20033;-76
2022/09/15 12:46:00;;;;;;;3.75;1.73;;;;;;;18.48;66.81;100733.59;5257138;28;19928;-73
2022/09/15 12:48:35;;;;;;;5.15;1.60;;;;;;;18.28;64.83;100731.66;5244267;28;20030;-75
2022/09/15 12:51:09;;;;;;;4.53;2.35;;;;;;;18.43;64.56;100734.66;5245560;28;20112;-77
2022/09/15 12:53:53;;;;;;;7.32;1.67;;;;;;;18.28;65.79;100737.25;5244435;28;20061;-76
2022/09/15 12:56:30;;;;;;;5.47;1.80;;;;;;;18.36;64.27;100733.56;5236255;28;20102;-77
2022/09/15 12:59:04;;;;;;;5.68;2.17;;;;;;;18.53;64.55;100724.13;5252175;28;20083;-78
2022/09/15 13:01:49;;;;;;;9.27;4.85;;;;;;;18.45;62.90;100735.09;5254550;28;20139;-77
2022/09/15 13:04:56;;;;;;;3.65;1.60;;;;;;;18.31;62.35;100742.22;5257604;28;20389;-78
2022/09/15 13:07:34;;;;;;;3.72;1.63;;;;;;;18.47;64.36;100729.97;5242363;28;20035;-78
2022/09/15 13:10:09;;;;;;;4.38;1.70;;;;;;;18.39;62.78;100738.50;5244465;28;20057;-78
2022/09/15 13:12:50;;;;;;;5.88;1.70;;;;;;;18.28;62.52;100737.25;5238015;28;20052;-78
2022/09/15 13:15:24;;;;;;;4.82;1.30;;;;;;;18.40;62.42;100740.13;5264399;28;20017;-75
2022/09/15 13:18:03;;;;;;;2.50;1.35;;;;;;;18.39;56.00;100744.13;5265282;28;20032;-78
2022/09/15 13:20:47;;;;;;;3.97;1.73;;;;;;;18.64;53.53;100740.22;5253542;28;20063;-77
2022/09/15 13:23:23;;;;;;;2.47;1.95;;;;;;;18.92;51.03;100750.00;5244575;28;20430;-79
2022/09/15 13:25:58;;;;;;;4.78;1.50;;;;;;;19.14;52.88;100734.69;5244638;28;20056;-80
2022/09/15 13:28:30;;;;;;;4.45;1.55;;;;;;;19.08;49.96;100746.19;5236606;28;20022;-79
2022/09/15 13:31:48;;;;;;;4.45;1.27;;;;;;;19.08;52.40;100753.78;5256721;28;20052;-78
2022/09/15 13:34:49;;;;;;;10.02;8.27;;;;;;;18.96;52.21;100745.34;5263930;28;20036;-77
2022/09/15 13:37:55;;;;;;;6.75;3.55;;;;;;;18.94;52.77;100754.09;5255534;28;20406;-77
2022/09/15 13:40:51;;;;;;;3.95;2.53;;;;;;;18.84;51.63;100754.56;5243782;28;20076;-78
2022/09/15 13:43:44;;;;;;;3.47;1.88;;;;;;;18.79;53.57;100755.63;5243200;28;20077;-77
2022/09/15 13:46:52;;;;;;;4.88;1.95;;;;;;;18.77;51.22;100754.34;5229115;28;20026;-77
2022/09/15 13:49:48;;;;;;;8.85;4.55;;;;;;;18.55;48.82;100759.13;5227423;28;20056;-78
2022/09/15 13:52:30;;;;;;;4.38;1.55;;;;;;;18.48;48.92;100758.88;5243678;28;20411;-79
2022/09/15 13:55:22;;;;;;;3.33;1.30;;;;;;;18.54;50.50;100757.50;5239180;28;20049;-77
2022/09/15 13:57:55;;;;;;;3.25;1.73;;;;;;;18.71;52.24;100753.69;5240199;28;20064;-78
2022/09/15 14:00:32;;;;;;;3.17;1.10;;;;;;;18.44;51.25;100753.13;5243443;28;20049;-77
2022/09/15 14:03:12;;;;;;;3.63;1.50;;;;;;;18.53;51.04;100755.03;5232501;28;20506;-77
2022/09/15 14:05:44;;;;;;;3.85;2.00;;;;;;;18.34;50.83;100755.56;5243365;28;20045;-77
2022/09/15 14:08:32;;;;;;;3.67;1.30;;;;;;;18.41;53.12;100753.84;5244176;28;20052;-78
2022/09/15 14:11:07;;;;;;;2.20;1.15;;;;;;;18.38;52.76;100748.06;5254017;28;20025;-79
2022/09/15 14:13:49;;;;;;;4.55;1.40;;;;;;;18.42;53.16;100755.47;5246103;28;20439;-80
2022/09/15 14:16:50;;;;;;;4.15;1.75;;;;;;;18.33;52.38;100751.09;5243331;28;20093;-78
2022/09/15 14:19:32;;;;;;;21.10;18.77;;;;;;;18.37;53.24;100757.66;5224792;28;20054;-79
2022/09/15 14:22:24;;;;;;;7.57;4.47;;;;;;;18.31;53.28;100761.88;5244306;28;20353;-78
2022/09/15 14:25:04;;;;;;;4.53;1.73;;;;;;;18.27;53.43;100763.72;5241902;28;20087;-79
2022/09/15 14:27:41;;;;;;;2.47;1.30;;;;;;;18.16;54.02;100766.94;5242950;28;20022;-79
2022/09/15 14:30:31;;;;;;;60.55;54.05;;;;;;;18.21;55.62;100766.72;5242874;28;20030;-79
2022/09/15 14:33:02;;;;;;;3.50;1.63;;;;;;;18.14;55.23;100762.81;5241734;28;20072;-79
2022/09/15 14:35:36;;;;;;;9.95;6.35;;;;;;;18.23;57.70;100761.59;5242520;28;20493;-79
2022/09/15 14:38:20;;;;;;;7.65;3.90;;;;;;;18.13;56.64;100764.81;5221278;28;20109;-79
2022/09/15 14:40:55;;;;;;;11.10;2.78;;;;;;;18.03;57.18;100765.22;5235666;28;20030;-79
2022/09/15 14:43:38;;;;;;;3.05;1.80;;;;;;;17.97;56.07;100763.78;5242840;28;20028;-79
2022/09/15 14:46:11;;;;;;;3.75;1.27;;;;;;;17.86;56.12;100766.16;5240834;28;20030;-79
2022/09/15 14:48:42;;;;;;;3.85;1.80;;;;;;;17.96;57.23;100770.56;5242285;28;20037;-79
2022/09/15 14:51:31;;;;;;;7.75;4.43;;;;;;;17.94;57.94;100773.69;5242657;28;20051;-78
2022/09/15 14:54:05;;;;;;;38.45;34.28;;;;;;;17.94;58.98;100773.69;5234384;28;20028;-79
2022/09/15 14:56:41;;;;;;;10.85;6.05;;;;;;;17.81;58.62;100781.22;5242372;28;20241;-78
2022/09/15 14:59:26;;;;;;;9.48;2.30;;;;;;;17.67;57.74;100791.03;5238708;28;20483;-79
2022/09/15 15:02:02;;;;;;;6.38;1.55;;;;;;;17.66;57.13;100784.56;5256919;28;20045;-80
2022/09/15 15:04:39;;;;;;;4.85;2.10;;;;;;;17.74;57.54;100791.28;5244252;28;20033;-81
2022/09/15 15:07:21;;;;;;;5.05;1.88;;;;;;;17.71;57.54;100787.19;5250945;28;20036;-81
2022/09/15 15:10:03;;;;;;;3.70;1.63;;;;;;;17.68;59.15;100782.25;5240251;28;20063;-80
2022/09/15 15:12:41;;;;;;;6.35;1.20;;;;;;;17.51;56.53;100779.56;5253626;28;20041;-80
2022/09/15 15:15:14;;;;;;;3.15;1.70;;;;;;;17.53;57.12;100785.66;5254512;28;20021;-77
2022/09/15 15:17:49;;;;;;;4.05;2.00;;;;;;;17.49;57.42;100779.09;5254156;28;20416;-77
2022/09/15 15:20:29;;;;;;;4.28;2.35;;;;;;;17.61;59.07;100793.19;5249371;28;20033;-79
2022/09/15 15:23:09;;;;;;;17.52;10.73;;;;;;;17.50;58.80;100786.34;5257708;28;20120;-79
2022/09/15 15:25:42;;;;;;;5.78;3.88;;;;;;;17.29;56.87;100797.50;5241592;28;20036;-80
2022/09/15 15:28:34;;;;;;;7.88;1.65;;;;;;;17.33;57.37;100796.47;5246077;28;20163;-79
2022/09/15 15:31:23;;;;;;;7.07;1.73;;;;;;;17.35;55.88;100794.13;5250994;28;20020;-79
2022/09/15 15:34:04;;;;;;;2.58;1.27;;;;;;;17.21;54.50;100801.16;5262702;28;20456;-77
2022/09/15 15:36:35;;;;;;;2.60;1.38;;;;;;;17.23;55.04;100801.63;5252194;28;20114;-77
2022/09/15 15:39:19;;;;;;;5.03;1.35;;;;;;;17.11;55.74;100797.53;5243058;28;20122;-75
2022/09/15 15:42:01;;;;;;;3.15;1.20;;;;;;;17.05;55.30;100798.91;5260863;28;20530;-77
2022/09/15 15:44:32;;;;;;;1.55;1.00;;;;;;;17.12;59.18;100801.97;5233338;28;20084;-74
2022/09/15 15:47:13;;;;;;;4.07;1.90;;;;;;;16.99;56.70;100813.41;5220943;28;20026;-77
2022/09/15 15:49:44;;;;;;;3.15;1.25;;;;;;;16.99;59.14;100802.19;5233597;28;20038;-76
2022/09/15 15:52:15;;;;;;;2.13;1.30;;;;;;;16.97;58.65;100804.50;5244371;28;20029;-77
2022/09/15 15:54:46;;;;;;;6.60;1.55;;;;;;;16.95;58.36;100808.47;5229114;28;20100;-77
2022/09/15 15:57:26;;;;;;;4.18;2.72;;;;;;;16.89;59.47;100812.59;5234194;28;20025;-73
2022/09/15 15:59:59;;;;;;;6.13;2.85;;;;;;;17.09;60.58;100807.44;5240951;28;20127;-75
2022/09/15 16:02:30;;;;;;;2.35;1.38;;;;;;;16.88;60.97;100810.97;5223205;28;20033;-77
2022/09/15 16:05:02;;;;;;;5.32;1.90;;;;;;;16.92;60.51;100811.97;5220636;28;20021;-77
2022/09/15 16:07:33;;;;;;;4.55;2.10;;;;;;;16.78;60.41;100813.28;5220950;28;20585;-78
2022/09/15 16:10:06;;;;;;;4.72;2.10;;;;;;;16.93;60.88;100807.16;5239441;28;20052;-74
2022/09/15 16:12:38;;;;;;;6.40;1.60;;;;;;;16.79;61.81;100809.34;5240507;28;20480;-73
2022/09/15 16:15:15;;;;;;;19.65;16.27;;;;;;;16.90;63.04;100816.25;5242167;28;20042;-79
2022/09/15 16:17:48;;;;;;;11.95;3.67;;;;;;;16.86;63.17;100818.06;5237864;28;20029;-76
2022/09/15 16:20:20;;;;;;;8.05;2.45;;;;;;;16.76;62.70;100815.56;5220671;28;20049;-74
2022/09/15 16:22:51;;;;;;;8.13;1.88;;;;;;;16.89;64.23;100818.19;5240019;28;20038;-73
2022/09/15 16:25:51;;;;;;;5.80;2.10;;;;;;;16.89;62.90;100815.41;5244447;28;20022;-74
2022/09/15 16:28:22;;;;;;;5.90;1.65;;;;;;;16.65;63.39;100817.91;5244713;28;20034;-75
2022/09/15 16:30:56;;;;;;;5.18;1.77;;;;;;;16.68;63.92;100822.84;5244355;28;20025;-75
2022/09/15 16:33:28;;;;;;;5.82;1.38;;;;;;;16.63;64.32;100821.03;5245001;28;20030;-75
2022/09/15 16:36:05;;;;;;;4.03;1.50;;;;;;;16.38;65.20;100819.06;5240926;28;20029;-77
2022/09/15 16:38:37;;;;;;;7.70;2.15;;;;;;;16.27;65.62;100821.38;5244197;28;20037;-76
2022/09/15 16:41:14;;;;;;;4.97;1.33;;;;;;;16.27;66.36;100825.00;5245041;28;20428;-76
2022/09/15 16:43:46;;;;;;;4.15;1.27;;;;;;;16.37;66.39;100818.25;5245156;28;20018;-77
2022/09/15 16:46:17;;;;;;;3.17;1.10;;;;;;;16.34;67.13;100821.72;5244819;28;20166;-76
2022/09/15 16:48:49;;;;;;;3.60;1.20;;;;;;;16.28;66.72;100818.25;5245171;28;20433;-76
2022/09/15 16:51:23;;;;;;;6.03;1.40;;;;;;;16.26;66.84;100808.53;5245728;28;20116;-77
2022/09/15 16:53:54;;;;;;;6.05;2.00;;;;;;;16.25;66.87;100816.09;5245907;28;20024;-77
2022/09/15 16:56:25;;;;;;;5.32;2.30;;;;;;;16.23;67.19;100817.56;5263001;28;20025;-75
2022/09/15 16:58:57;;;;;;;5.00;2.00;;;;;;;16.24;67.25;100817.25;5258018;28;20431;-77
2022/09/15 17:01:28;;;;;;;5.97;1.48;;;;;;;16.23;67.51;100823.16;5234179;28;20113;-75
2022/09/15 17:04:01;;;;;;;3.67;1.63;;;;;;;16.17;68.75;100811.31;5252007;28;20057;-79
2022/09/15 17:06:32;;;;;;;4.32;1.70;;;;;;;16.23;68.03;100812.81;5243696;28;20028;-77
2022/09/15 17:09:04;;;;;;;3.95;1.30;;;;;;;16.19;67.74;100816.59;5239307;28;20022;-76
2022/09/15 17:11:35;;;;;;;6.18;1.80;;;;;;;16.26;67.92;100816.94;5229836;28;20612;-80
2022/09/15 17:14:12;;;;;;;4.55;1.60;;;;;;;16.39;67.69;100818.75;5243876;28;20056;-82
2022/09/15 17:16:46;;;;;;;7.15;2.20;;;;;;;16.41;67.40;100819.25;5244790;28;20032;-79
2022/09/15 17:19:17;;;;;;;5.65;1.50;;;;;;;16.43;66.49;100822.50;5243604;28;20017;-73
2022/09/15 17:21:51;;;;;;;5.85;2.00;;;;;;;16.34;66.31;100820.91;5242731;28;20457;-74
2022/09/15 17:24:22;;;;;;;4.00;1.42;;;;;;;16.40;66.25;100817.56;5241867;28;20071;-77
2022/09/15 17:26:54;;;;;;;4.90;1.70;;;;;;;16.43;66.59;100822.50;5243227;28;20021;-77
2022/09/15 17:29:25;;;;;;;8.40;1.98;;;;;;;16.24;66.64;100820.06;5241010;28;20013;-78
2022/09/15 17:32:03;;;;;;;7.85;2.10;;;;;;;16.28;66.96;100820.22;5241401;28;20068;-81
